Terminal Aerodrome Forecast
Issued by NWS

Home | Current Version | Previous Version | Text Only | Print | Product List | Glossary On
Versions: 1 2 3 4 5 6 7 8 9 10 11 12 13 14 15 16 17
850
FTUS46 KMTR 291739
TAFSTS
TAF
KSTS 291739Z 2918/3018 VRB04KT P6SM FEW007
     FM291900 17010KT P6SM SKC
     FM300500 VRB04KT P6SM SKC
     FM301400 VRB02KT 6SM BR SCT004
     FM301700 17008KT P6SM SKC=

USA.gov is the U.S. government's official web portal to all federal, state and local government web resources and services.